createdAt,value
2022-08-09T00:00:00.630Z,77.27
2022-08-09T00:02:56.845Z,76.89
2022-08-09T00:06:17.736Z,77.11
2022-08-09T00:08:11.148Z,76.77
2022-08-09T00:10:41.375Z,76.62
2022-08-09T00:13:17.147Z,76.24
2022-08-09T00:15:59.894Z,76.09
2022-08-09T00:18:35.037Z,75.92
2022-08-09T00:21:07.908Z,75.80
2022-08-09T00:23:55.554Z,75.68
2022-08-09T00:26:32.222Z,75.58
2022-08-09T00:29:03.183Z,75.68
2022-08-09T00:32:00.055Z,75.65
2022-08-09T00:34:19.194Z,75.55
2022-08-09T00:36:50.439Z,75.67
2022-08-09T00:40:09.511Z,75.71
2022-08-09T00:44:11.746Z,75.87
2022-08-09T00:44:55.002Z,75.76
2022-08-09T00:47:25.053Z,76.00
2022-08-09T00:49:56.501Z,75.82
2022-08-09T00:52:28.134Z,76.16
2022-08-09T00:55:01.664Z,76.39
2022-08-09T00:57:34.617Z,76.61
2022-08-09T01:00:21.347Z,76.32
2022-08-09T01:02:59.534Z,76.78
2022-08-09T01:05:50.785Z,76.84
2022-08-09T01:09:16.821Z,76.83
2022-08-09T01:12:36.157Z,76.84
2022-08-09T01:15:18.614Z,76.80
2022-08-09T01:18:01.279Z,77.06
2022-08-09T01:21:14.378Z,76.98
2022-08-09T01:24:01.964Z,77.01
2022-08-09T01:26:52.891Z,77.25
2022-08-09T01:29:41.341Z,77.48
2022-08-09T01:32:55.655Z,77.23
2022-08-09T01:35:51.906Z,77.29
2022-08-09T01:38:24.555Z,77.29
2022-08-09T01:41:06.211Z,77.38
2022-08-09T01:43:51.089Z,77.39
2022-08-09T01:46:35.790Z,77.15
2022-08-09T01:49:12.888Z,77.33
2022-08-09T01:51:53.998Z,77.26
2022-08-09T01:54:30.235Z,77.26
2022-08-09T01:57:11.609Z,77.35
2022-08-09T01:59:51.630Z,77.38
2022-08-09T02:02:30.125Z,77.29
2022-08-09T02:05:15.465Z,77.28
2022-08-09T02:08:41.053Z,77.47
2022-08-09T02:10:51.155Z,77.42
2022-08-09T02:13:26.299Z,77.55
2022-08-09T02:16:07.343Z,77.31
2022-08-09T02:18:38.770Z,77.59
2022-08-09T02:21:17.140Z,77.45
2022-08-09T02:23:54.748Z,77.46
2022-08-09T02:26:27.426Z,77.38
2022-08-09T02:29:05.478Z,77.74
2022-08-09T02:31:40.951Z,77.94
2022-08-09T02:34:40.936Z,77.79
2022-08-09T02:37:14.351Z,77.78
2022-08-09T02:40:01.390Z,78.19
2022-08-09T02:42:40.696Z,78.08
2022-08-09T02:45:18.292Z,78.30
2022-08-09T02:47:57.314Z,78.49
2022-08-09T02:50:33.486Z,78.53
2022-08-09T02:53:07.344Z,78.55
2022-08-09T02:55:57.284Z,78.35
2022-08-09T02:58:36.331Z,78.51
2022-08-09T03:01:10.951Z,78.92
2022-08-09T03:04:12.823Z,78.95
2022-08-09T03:06:29.938Z,78.96
2022-08-09T03:08:58.546Z,79.14
2022-08-09T03:12:04.312Z,79.10
2022-08-09T03:14:16.248Z,79.01
2022-08-09T03:16:47.722Z,79.09
2022-08-09T03:19:58.593Z,79.19
2022-08-09T03:22:11.767Z,79.13
2022-08-09T03:24:52.382Z,79.34
2022-08-09T03:27:22.289Z,79.59
2022-08-09T03:29:58.121Z,79.82
2022-08-09T03:32:36.803Z,79.84
2022-08-09T03:35:05.079Z,80.00
2022-08-09T03:37:55.628Z,79.88
2022-08-09T03:40:25.754Z,79.88
2022-08-09T03:42:58.233Z,79.98
2022-08-09T03:46:05.177Z,80.03
2022-08-09T03:48:12.475Z,79.90
2022-08-09T03:50:47.074Z,80.10
2022-08-09T03:53:17.521Z,79.95
2022-08-09T03:55:49.060Z,80.08
2022-08-09T03:58:17.055Z,80.12
2022-08-09T04:00:48.853Z,80.03
2022-08-09T04:03:24.988Z,79.87
2022-08-09T04:06:05.219Z,79.60
2022-08-09T04:08:35.423Z,79.61
2022-08-09T04:11:02.492Z,79.47
2022-08-09T04:14:36.968Z,79.37
2022-08-09T04:16:20.007Z,79.02
2022-08-09T04:18:49.243Z,78.85
2022-08-09T04:21:18.628Z,78.33
2022-08-09T04:23:54.530Z,78.10
2022-08-09T04:26:35.188Z,77.72
2022-08-09T04:29:10.803Z,77.35
2022-08-09T04:31:47.365Z,77.00
2022-08-09T04:34:14.527Z,76.98
2022-08-09T04:36:50.342Z,76.65
2022-08-09T04:39:17.640Z,76.32
2022-08-09T04:41:44.672Z,75.84
2022-08-09T04:44:14.322Z,75.56
2022-08-09T04:46:58.257Z,75.25
2022-08-09T04:49:52.235Z,75.34
2022-08-09T04:52:32.018Z,75.14
2022-08-09T04:55:01.641Z,74.74
2022-08-09T04:57:54.379Z,74.57
2022-08-09T05:00:16.926Z,74.46
2022-08-09T05:02:51.786Z,74.04
2022-08-09T05:05:32.243Z,73.53
2022-08-09T05:08:08.571Z,73.20
2022-08-09T05:10:36.785Z,73.00
2022-08-09T05:13:04.243Z,72.59
2022-08-09T05:15:39.385Z,72.47
2022-08-09T05:18:38.947Z,72.27
2022-08-09T05:20:57.313Z,72.10
2022-08-09T05:23:55.350Z,71.55
2022-08-09T05:26:11.396Z,71.05
2022-08-09T05:28:49.576Z,70.73
2022-08-09T05:31:19.295Z,70.60
2022-08-09T05:34:06.199Z,70.64
2022-08-09T05:36:47.099Z,70.60
2022-08-09T05:39:28.330Z,70.37
2022-08-09T05:42:01.478Z,70.47
2022-08-09T05:44:34.525Z,70.29
2022-08-09T05:47:05.635Z,69.96
2022-08-09T05:50:24.257Z,70.08
2022-08-09T05:52:26.261Z,69.57
2022-08-09T05:54:57.880Z,69.43
2022-08-09T05:57:51.177Z,69.64
2022-08-09T06:00:17.447Z,69.48
2022-08-09T06:02:46.650Z,69.91
2022-08-09T06:05:14.208Z,69.77
2022-08-09T06:07:43.206Z,70.12
2022-08-09T06:10:15.843Z,70.01
2022-08-09T06:12:45.283Z,69.71
2022-08-09T06:15:24.830Z,69.91
2022-08-09T06:17:53.614Z,69.91
2022-08-09T06:20:20.973Z,69.89
2022-08-09T06:22:48.224Z,69.84
2022-08-09T06:25:16.808Z,69.67
2022-08-09T06:27:51.307Z,69.55
2022-08-09T06:30:19.300Z,69.51
2022-08-09T06:32:59.691Z,69.31
2022-08-09T06:35:35.625Z,69.19
2022-08-09T06:38:16.523Z,68.68
2022-08-09T06:40:48.471Z,68.64
2022-08-09T06:43:22.365Z,68.32
2022-08-09T06:46:07.908Z,68.20
2022-08-09T06:48:42.674Z,68.12
2022-08-09T06:51:11.366Z,68.13
2022-08-09T06:53:39.442Z,68.02
2022-08-09T06:56:07.688Z,67.77
2022-08-09T07:00:46.374Z,68.22
2022-08-09T07:01:35.535Z,67.86
2022-08-09T07:04:11.697Z,67.58
2022-08-09T07:06:48.048Z,67.19
2022-08-09T07:09:57.311Z,67.45
2022-08-09T07:12:17.343Z,67.15
2022-08-09T07:14:50.880Z,66.76
2022-08-09T07:17:19.896Z,66.59
2022-08-09T07:19:48.153Z,66.24
2022-08-09T07:22:18.554Z,65.97
2022-08-09T07:24:54.609Z,65.83
2022-08-09T07:27:27.051Z,65.35
2022-08-09T07:30:03.072Z,65.63
2022-08-09T07:32:32.123Z,65.43
2022-08-09T07:35:10.510Z,65.10
2022-08-09T07:37:45.620Z,64.70
2022-08-09T07:40:18.500Z,63.76
2022-08-09T07:42:54.595Z,63.00
2022-08-09T07:45:40.393Z,63.27
2022-08-09T07:48:28.480Z,63.22
2022-08-09T07:51:03.214Z,62.84
2022-08-09T07:54:06.829Z,62.53
2022-08-09T07:56:38.792Z,62.40
2022-08-09T07:59:16.003Z,62.37
2022-08-09T08:02:00.034Z,61.89
2022-08-09T08:04:32.370Z,61.45
2022-08-09T08:07:15.416Z,60.73
2022-08-09T08:09:54.810Z,59.94
2022-08-09T08:12:33.041Z,60.15
2022-08-09T08:15:00.400Z,59.66
2022-08-09T08:17:51.965Z,59.85
2022-08-09T08:20:15.390Z,59.40
2022-08-09T08:22:43.150Z,59.18
2022-08-09T08:25:13.832Z,58.83
2022-08-09T08:27:43.164Z,58.63
2022-08-09T08:30:17.806Z,58.57
2022-08-09T08:32:53.659Z,58.43
2022-08-09T08:35:22.722Z,58.49
2022-08-09T08:37:59.904Z,58.54
2022-08-09T08:40:35.399Z,58.32
2022-08-09T08:43:08.986Z,57.73
2022-08-09T08:45:51.638Z,58.08
2022-08-09T08:48:22.615Z,58.14
2022-08-09T08:50:58.022Z,57.46
2022-08-09T08:53:32.122Z,57.39
2022-08-09T08:56:06.504Z,56.63
2022-08-09T08:58:35.898Z,55.31
2022-08-09T09:01:03.625Z,54.46
2022-08-09T09:03:38.122Z,54.12
2022-08-09T09:06:06.803Z,54.48
2022-08-09T09:08:40.751Z,54.96
2022-08-09T09:11:13.613Z,54.88
2022-08-09T09:13:55.642Z,54.66
2022-08-09T09:16:34.116Z,54.00
2022-08-09T09:22:15.848Z,53.66
2022-08-09T09:24:49.639Z,53.74
2022-08-09T09:28:05.478Z,53.05
2022-08-09T09:30:34.476Z,53.57
2022-08-09T09:33:16.525Z,53.64
2022-08-09T09:36:02.028Z,53.74
2022-08-09T09:38:50.288Z,53.83
2022-08-09T09:41:23.521Z,53.50
2022-08-09T09:44:12.961Z,53.58
2022-08-09T09:46:42.856Z,53.67
2022-08-09T09:49:12.938Z,54.11
2022-08-09T09:51:41.162Z,54.24
2022-08-09T09:54:21.127Z,54.03
2022-08-09T09:56:53.272Z,54.18
2022-08-09T09:59:37.101Z,53.82
2022-08-09T10:02:05.983Z,53.08
2022-08-09T10:04:34.927Z,53.11
2022-08-09T10:07:03.586Z,53.42
2022-08-09T10:09:48.949Z,53.05
2022-08-09T10:12:29.490Z,52.66
2022-08-09T10:15:10.771Z,52.28
2022-08-09T10:17:56.567Z,51.88
2022-08-09T10:20:35.437Z,51.79
2022-08-09T10:23:20.328Z,52.09
2022-08-09T10:26:06.586Z,52.18
2022-08-09T10:28:40.326Z,52.26
2022-08-09T10:34:10.318Z,51.20
2022-08-09T10:36:51.185Z,50.75
2022-08-09T10:39:19.197Z,50.42
2022-08-09T10:41:47.690Z,50.24
2022-08-09T10:44:22.226Z,49.97
2022-08-09T10:48:12.084Z,50.06
2022-08-09T10:50:57.327Z,50.51
2022-08-09T10:54:04.901Z,50.60
2022-08-09T10:56:35.736Z,51.07
2022-08-09T10:59:43.054Z,51.31
2022-08-09T11:03:15.880Z,51.56
2022-08-09T11:05:39.348Z,51.82
2022-08-09T11:08:47.934Z,51.78
2022-08-09T11:11:19.167Z,51.94
2022-08-09T11:13:50.021Z,51.90
2022-08-09T11:16:34.905Z,52.15
2022-08-09T11:19:08.035Z,52.26
2022-08-09T11:22:05.139Z,52.40
2022-08-09T11:25:25.759Z,52.61
2022-08-09T11:28:03.919Z,52.66
2022-08-09T11:30:36.528Z,52.58
2022-08-09T11:33:16.413Z,52.72
2022-08-09T11:35:52.836Z,52.54
2022-08-09T11:38:34.050Z,52.62
2022-08-09T11:41:37.984Z,52.83
2022-08-09T11:44:08.430Z,52.73
2022-08-09T11:47:00.289Z,52.53
2022-08-09T11:50:55.018Z,52.85
2022-08-09T11:53:28.186Z,52.76
2022-08-09T11:55:53.538Z,52.57
2022-08-09T11:58:32.541Z,52.43
2022-08-09T12:01:08.682Z,52.34
2022-08-09T12:03:55.000Z,52.34
2022-08-09T12:06:32.207Z,52.33
2022-08-09T12:09:15.243Z,52.46
2022-08-09T12:12:20.004Z,52.35
2022-08-09T12:15:04.162Z,52.14
2022-08-09T12:17:42.359Z,52.14
2022-08-09T12:20:21.480Z,52.05
2022-08-09T12:22:59.944Z,52.01
2022-08-09T12:25:37.578Z,52.04
2022-08-09T12:29:12.577Z,51.68
2022-08-09T12:30:57.269Z,51.42
2022-08-09T12:33:35.353Z,51.34
2022-08-09T12:36:27.439Z,51.63
2022-08-09T12:39:00.264Z,51.67
2022-08-09T12:41:38.280Z,51.47
2022-08-09T12:44:10.100Z,51.20
2022-08-09T12:46:49.084Z,51.18
2022-08-09T12:49:18.763Z,50.51
2022-08-09T12:52:02.319Z,50.67
2022-08-09T12:56:11.061Z,50.49
2022-08-09T12:57:46.250Z,50.57
2022-08-09T13:00:33.797Z,50.32
2022-08-09T13:03:05.959Z,50.21
2022-08-09T13:05:51.488Z,50.09
2022-08-09T13:08:40.729Z,50.24
2022-08-09T13:11:22.750Z,50.11
2022-08-09T13:14:37.029Z,50.16
2022-08-09T13:16:51.348Z,49.99
2022-08-09T13:20:07.706Z,50.06
2022-08-09T13:22:36.661Z,49.93
2022-08-09T13:25:13.869Z,50.03
2022-08-09T13:27:48.586Z,49.52
2022-08-09T13:30:50.470Z,48.69
2022-08-09T13:33:22.476Z,48.73
2022-08-09T13:36:38.170Z,48.59
2022-08-09T13:38:57.702Z,48.56
2022-08-09T13:41:58.574Z,48.65
2022-08-09T13:44:13.522Z,48.74
2022-08-09T13:47:26.758Z,49.03
2022-08-09T13:49:39.750Z,49.38
2022-08-09T13:52:23.482Z,49.45
2022-08-09T13:55:00.820Z,49.62
2022-08-09T13:57:36.332Z,49.82
2022-08-09T14:00:15.422Z,50.31
2022-08-09T14:03:04.411Z,50.46
2022-08-09T14:05:56.708Z,50.33
2022-08-09T14:08:21.627Z,50.17
2022-08-09T14:10:51.930Z,50.36
2022-08-09T14:14:15.566Z,50.41
2022-08-09T14:16:14.941Z,50.27
2022-08-09T14:18:49.792Z,50.20
2022-08-09T14:21:22.698Z,50.44
2022-08-09T14:23:55.580Z,50.62
2022-08-09T14:26:33.682Z,50.59
2022-08-09T14:29:25.527Z,50.54
2022-08-09T14:31:55.066Z,50.39
2022-08-09T14:34:31.243Z,50.46
2022-08-09T14:37:06.829Z,50.32
2022-08-09T14:39:47.033Z,50.11
2022-08-09T14:42:30.565Z,50.19
2022-08-09T14:46:39.512Z,49.70
2022-08-09T14:47:57.955Z,48.55
2022-08-09T14:50:33.036Z,48.75
2022-08-09T14:53:11.446Z,48.37
2022-08-09T14:55:41.903Z,48.40
2022-08-09T14:58:10.546Z,48.18
2022-08-09T15:00:42.366Z,48.58
2022-08-09T15:03:16.738Z,48.44
2022-08-09T15:05:52.493Z,48.32
2022-08-09T15:08:25.649Z,48.65
2022-08-09T15:11:00.692Z,48.59
2022-08-09T15:13:29.938Z,49.87
2022-08-09T15:16:16.446Z,51.91
2022-08-09T15:18:43.492Z,53.09
2022-08-09T15:22:00.526Z,53.52
2022-08-09T15:24:12.891Z,53.73
2022-08-09T15:26:46.192Z,54.17
2022-08-09T15:30:58.488Z,54.52
2022-08-09T15:32:01.422Z,54.98
2022-08-09T15:34:34.626Z,55.24
2022-08-09T15:37:23.723Z,55.61
2022-08-09T15:39:53.759Z,55.70
2022-08-09T15:42:22.879Z,56.54
2022-08-09T15:44:50.336Z,57.09
2022-08-09T15:47:22.512Z,57.60
2022-08-09T15:50:04.512Z,57.61
2022-08-09T15:52:38.562Z,57.82
2022-08-09T15:55:09.280Z,57.88
2022-08-09T15:57:44.406Z,57.90
2022-08-09T16:00:26.203Z,57.93
2022-08-09T16:02:56.572Z,58.50
2022-08-09T16:05:47.769Z,58.47
2022-08-09T16:08:30.436Z,59.33
2022-08-09T16:11:03.076Z,59.18
2022-08-09T16:14:04.895Z,58.98
2022-08-09T16:16:19.406Z,59.02
2022-08-09T16:18:47.728Z,59.56
2022-08-09T16:21:17.494Z,59.60
2022-08-09T16:23:58.360Z,59.73
2022-08-09T16:26:35.664Z,59.84
2022-08-09T16:29:11.447Z,60.08
2022-08-09T16:32:18.960Z,60.27
2022-08-09T16:34:55.465Z,60.69
2022-08-09T16:37:56.047Z,60.78
2022-08-09T16:40:11.592Z,61.15
2022-08-09T16:42:45.342Z,60.99
2022-08-09T16:45:19.553Z,61.38
2022-08-09T16:48:37.915Z,61.73
2022-08-09T16:50:38.770Z,61.70
2022-08-09T16:53:06.500Z,62.08
2022-08-09T16:55:58.338Z,62.17
2022-08-09T16:58:24.758Z,62.47
2022-08-09T17:00:53.184Z,63.54
2022-08-09T17:03:23.259Z,65.66
2022-08-09T17:06:08.590Z,65.69
2022-08-09T17:08:57.332Z,65.81
2022-08-09T17:11:41.234Z,66.79
2022-08-09T17:14:25.421Z,67.43
2022-08-09T17:17:02.453Z,67.66
2022-08-09T17:20:06.130Z,67.25
2022-08-09T17:22:28.555Z,67.34
2022-08-09T17:25:09.865Z,67.38
2022-08-09T17:27:49.254Z,67.51
2022-08-09T17:30:28.439Z,67.40
2022-08-09T17:33:05.255Z,67.60
2022-08-09T17:35:46.121Z,68.07
2022-08-09T17:38:32.437Z,68.07
2022-08-09T17:41:03.027Z,68.12
2022-08-09T17:43:34.859Z,68.06
2022-08-09T17:46:07.613Z,68.14
2022-08-09T17:48:51.788Z,68.24
2022-08-09T17:51:21.071Z,68.38
2022-08-09T17:53:52.999Z,68.55
2022-08-09T17:56:35.647Z,68.79
2022-08-09T17:59:11.813Z,69.01
2022-08-09T18:02:06.788Z,69.04
2022-08-09T18:04:30.662Z,69.06
2022-08-09T18:06:57.642Z,69.22
2022-08-09T18:09:40.205Z,69.15
2022-08-09T18:12:19.568Z,69.30
2022-08-09T18:14:53.916Z,69.15
2022-08-09T18:18:02.238Z,69.39
2022-08-09T18:20:54.932Z,69.44
2022-08-09T18:23:05.115Z,69.39
2022-08-09T18:25:45.542Z,69.52
2022-08-09T18:30:35.792Z,69.47
2022-08-09T18:31:06.794Z,69.54
2022-08-09T18:33:34.504Z,69.44
2022-08-09T18:36:01.812Z,69.51
2022-08-09T18:38:28.786Z,69.81
2022-08-09T18:40:56.010Z,69.79
2022-08-09T18:43:25.210Z,69.83
2022-08-09T18:46:46.856Z,69.94
2022-08-09T18:48:39.275Z,69.82
2022-08-09T18:51:09.731Z,69.94
2022-08-09T18:53:59.812Z,70.07
2022-08-09T18:56:27.788Z,70.23
2022-08-09T18:58:57.039Z,70.50
2022-08-09T19:01:25.170Z,70.30
2022-08-09T19:04:01.427Z,70.36
2022-08-09T19:06:38.642Z,70.36
2022-08-09T19:09:08.506Z,70.80
2022-08-09T19:11:41.393Z,70.87
2022-08-09T19:14:08.452Z,71.03
2022-08-09T19:16:37.918Z,71.32
2022-08-09T19:19:25.122Z,71.23
2022-08-09T19:22:06.305Z,71.21
2022-08-09T19:25:11.955Z,71.30
2022-08-09T19:27:23.072Z,71.37
2022-08-09T19:30:23.239Z,71.81
2022-08-09T19:32:37.362Z,71.96
2022-08-09T19:35:05.617Z,72.15
2022-08-09T19:37:54.143Z,72.04
2022-08-09T19:40:21.693Z,71.95
2022-08-09T19:42:49.579Z,72.21
2022-08-09T19:45:17.719Z,72.52
2022-08-09T19:47:45.745Z,72.53
2022-08-09T19:50:50.122Z,72.85
2022-08-09T19:53:02.432Z,72.41
2022-08-09T19:55:52.825Z,73.02
2022-08-09T19:58:29.578Z,73.19
2022-08-09T20:00:57.977Z,73.89
2022-08-09T20:04:17.916Z,74.03
2022-08-09T20:06:22.333Z,74.03
2022-08-09T20:08:56.603Z,74.01
2022-08-09T20:11:26.886Z,73.93
2022-08-09T20:13:55.905Z,74.06
2022-08-09T20:16:35.604Z,74.04
2022-08-09T20:19:47.460Z,73.72
2022-08-09T20:21:57.235Z,73.50
2022-08-09T20:24:29.609Z,73.84
2022-08-09T20:27:05.467Z,73.65
2022-08-09T20:29:38.669Z,73.65
2022-08-09T20:32:29.749Z,73.71
2022-08-09T20:34:57.524Z,73.61
2022-08-09T20:37:25.119Z,73.72
2022-08-09T20:40:14.773Z,73.74
2022-08-09T20:42:39.082Z,73.46
2022-08-09T20:46:00.453Z,73.20
2022-08-09T20:47:55.104Z,73.28
2022-08-09T20:50:47.420Z,73.39
2022-08-09T20:53:35.042Z,73.51
2022-08-09T20:56:00.927Z,73.45
2022-08-09T20:58:32.518Z,73.54
2022-08-09T21:01:33.622Z,73.43
2022-08-09T21:05:49.013Z,73.25
2022-08-09T21:06:41.592Z,73.21
2022-08-09T21:09:13.708Z,73.42
2022-08-09T21:14:31.225Z,73.08
2022-08-09T21:17:00.184Z,73.25
2022-08-09T21:20:06.723Z,73.21
2022-08-09T21:22:35.906Z,73.26
2022-08-09T21:25:59.101Z,73.50
2022-08-09T21:28:34.435Z,73.53
2022-08-09T21:31:17.290Z,73.73
2022-08-09T21:33:52.401Z,73.60
2022-08-09T21:36:27.775Z,73.73
2022-08-09T21:38:58.811Z,73.60
2022-08-09T21:42:05.399Z,73.79
2022-08-09T21:44:33.956Z,73.71
2022-08-09T21:47:04.671Z,73.56
2022-08-09T21:49:40.608Z,73.52
2022-08-09T21:52:16.646Z,73.51
2022-08-09T21:54:49.548Z,73.55
2022-08-09T21:57:36.924Z,73.54
2022-08-09T22:00:14.984Z,73.57
2022-08-09T22:02:43.007Z,73.63
2022-08-09T22:05:22.267Z,73.92
2022-08-09T22:07:53.312Z,73.77
2022-08-09T22:10:22.963Z,73.86
2022-08-09T22:12:51.090Z,74.12
2022-08-09T22:15:20.540Z,74.08
2022-08-09T22:17:48.603Z,74.26
2022-08-09T22:20:21.582Z,74.10
2022-08-09T22:22:49.149Z,73.99
2022-08-09T22:26:06.754Z,74.06
2022-08-09T22:28:06.561Z,74.16
2022-08-09T22:30:34.520Z,74.36
2022-08-09T22:33:09.539Z,74.48
2022-08-09T22:36:01.739Z,74.70
2022-08-09T22:38:24.296Z,74.79
2022-08-09T22:40:57.403Z,75.03
2022-08-09T22:44:00.599Z,75.09
2022-08-09T22:48:16.714Z,74.99
2022-08-09T22:49:10.290Z,75.52
2022-08-09T22:51:43.328Z,75.63
2022-08-09T22:54:21.410Z,75.86
2022-08-09T22:56:50.827Z,76.11
2022-08-09T22:59:56.800Z,76.45
2022-08-09T23:02:08.701Z,76.62
2022-08-09T23:04:38.410Z,77.00
2022-08-09T23:08:23.391Z,77.11
2022-08-09T23:10:11.599Z,76.87
2022-08-09T23:12:38.591Z,77.34
2022-08-09T23:15:05.978Z,77.29
2022-08-09T23:17:33.414Z,77.42
2022-08-09T23:20:07.999Z,77.67
2022-08-09T23:22:35.911Z,77.70
2022-08-09T23:25:05.027Z,77.77
2022-08-09T23:27:32.862Z,77.85
2022-08-09T23:30:00.189Z,78.32
2022-08-09T23:32:27.607Z,77.98
2022-08-09T23:34:54.549Z,77.96
2022-08-09T23:37:22.893Z,77.88
2022-08-09T23:39:52.741Z,78.02
2022-08-09T23:42:19.612Z,77.94
2022-08-09T23:44:46.600Z,77.82
2022-08-09T23:47:14.467Z,77.87
2022-08-09T23:49:41.328Z,77.84
2022-08-09T23:52:08.263Z,77.99
2022-08-09T23:54:36.058Z,77.92
2022-08-09T23:57:03.314Z,77.98
2022-08-09T23:59:50.228Z,78.03
